Etretat — FIDP — position and weather

sailwx.info

Track history (hours):
 
Tides and Currents Weather Stations Pressure Air Temp Water Temp Dewpoint Dewpoint Depression Visibility Wind Speed Wind Dir Waves Ship Positions

Etretat

Last reported at 2014-Nov-28 21:34 UTC. Time now 2014-Nov-28 21:45 UTC.
Position N 50°49' W 001°06'.

Length 187 m; draft 6 m.

Type: Ship. MMSI: 228022900.

Date/timePositionNaut miles runAvg speedWind from/ knotsBaromVisibWave heightAir tempDewpointWater temp
2014-Nov-28 21:34N 50°49' W 001°06'0 0.5
2014-Nov-28 20:33N 50°49' W 001°07'1211.7
2014-Nov-28 19:34N 50°39' W 000°55'2 1.8
2014-Nov-28 18:32N 50°40' W 000°53'1111.3
2014-Nov-28 17:33N 50°47' W 001°06'2 1.6
2014-Nov-28 16:33N 50°49' W 001°06'0 0.0
2014-Nov-28 15:33N 50°49' W 001°06'0 0.0
2014-Nov-28 14:33N 50°49' W 001°06'0 0.0
2014-Nov-28 13:33N 50°49' W 001°06'0 0.0
2014-Nov-28 12:33N 50°49' W 001°06'0 0.0
2014-Nov-28 11:33N 50°49' W 001°06'0 0.0
2014-Nov-28 10:33N 50°49' W 001°06'0 0.0
2014-Nov-28 09:33N 50°49' W 001°06'0 0.0
2014-Nov-28 08:33N 50°49' W 001°06'1 1.4
2014-Nov-28 07:33N 50°47' W 001°07'1414.0
2014-Nov-28 06:34N 50°36' W 000°53'49 9.5
2014-Nov-28 01:26N 49°53' W 000°18'2 1.7
2014-Nov-28 00:33N 49°52' W 000°18'9 8.8
2014-Nov-27 23:33N 49°43' W 000°14'1010.2
2014-Nov-27 22:34N 49°35' W 000°04'9 9.4
2014-Nov-27 21:33N 49°29' E 000°07'0 0.0
2014-Nov-27 20:33N 49°29' E 000°07'0 0.0
2014-Nov-27 19:33N 49°29' E 000°07'0 0.0
2014-Nov-27 18:33N 49°29' E 000°07'0 0.0
2014-Nov-27 17:33N 49°29' E 000°07'9 9.3
2014-Nov-27 16:33N 49°35' W 000°04'6119.8
2014-Nov-27 13:30N 50°29' W 000°49'1718.0
2014-Nov-27 12:34N 50°43' W 001°02'6 5.8
2014-Nov-27 11:33N 50°49' W 001°06'0 0.0
2014-Nov-27 10:33N 50°49' W 001°06'0 0.0
2014-Nov-27 09:33N 50°49' W 001°06'0 0.0
2014-Nov-27 08:33N 50°49' W 001°06'1 1.3
2014-Nov-27 07:33N 50°47' W 001°07'1413.8
2014-Nov-27 06:33N 50°36' W 000°54'6210.3
2014-Nov-27 00:30N 49°42' W 000°05'3 2.9
2014-Nov-26 23:33N 49°41' W 000°08'4 4.0
2014-Nov-26 22:33N 49°37' W 000°05'1010.1
2014-Nov-26 21:34N 49°29' E 000°04'2 1.8
2014-Nov-26 20:33N 49°29' E 000°07'0 0.0
2014-Nov-26 19:33N 49°29' E 000°07'0 0.0
2014-Nov-26 18:33N 49°29' E 000°07'0 0.0
2014-Nov-26 17:33N 49°29' E 000°07'1110.7
2014-Nov-26 16:33N 49°37' W 000°05'6119.0
2014-Nov-26 13:22N 50°29' W 000°52'1518.7
2014-Nov-26 12:33N 50°43' W 001°01'6 6.4
2014-Nov-26 11:34N 50°49' W 001°06'0 0.0
2014-Nov-26 10:33N 50°49' W 001°06'0 0.0
2014-Nov-26 09:34N 50°49' W 001°06'0 0.0
2014-Nov-26 08:33N 50°49' W 001°06'2 1.6
2014-Nov-26 07:34N 50°47' W 001°06'1414.2
2014-Nov-26 06:34N 50°36' W 000°52'6011.7
2014-Nov-26 01:23N 49°43' W 000°07'2 2.4
2014-Nov-26 00:33N 49°42' W 000°05'1 1.4
2014-Nov-25 23:33N 49°40' W 000°06'5 5.1
2014-Nov-25 22:33N 49°36' W 000°03'9 9.2
2014-Nov-25 21:34N 49°29' E 000°07'0 0.0
2014-Nov-25 20:34N 49°29' E 000°07'0 0.0
2014-Nov-25 19:34N 49°29' E 000°07'0 0.0
2014-Nov-25 18:34N 49°29' E 000°07'0 0.0
2014-Nov-25 17:34N 49°29' E 000°07'1212.1
2014-Nov-25 16:33N 49°37' W 000°08'5919.7
2014-Nov-25 13:33N 50°29' W 000°53'1918.9
2014-Nov-25 12:34N 50°45' W 001°05'3 3.3
2014-Nov-25 11:33N 50°49' W 001°06'0 0.0
2014-Nov-25 10:33N 50°49' W 001°06'0 0.0
2014-Nov-25 09:33N 50°49' W 001°06'1 1.0
2014-Nov-25 08:33N 50°48' W 001°07'1212.5
2014-Nov-25 07:34N 50°38' W 000°54'9 8.7
2014-Nov-25 06:33N 50°30' W 000°49'4610.6
2014-Nov-25 02:11N 49°49' W 000°16'6 9.9
2014-Nov-25 01:34N 49°44' W 000°11'1010.0
2014-Nov-25 00:34N 49°36' W 000°03'9 9.0
2014-Nov-24 23:34N 49°29' E 000°07'0 0.0
2014-Nov-24 22:33N 49°29' E 000°07'6 6.1
2014-Nov-24 21:34N 49°33' W 000°01'6722.1
2014-Nov-24 18:31N 50°32' W 000°51'1818.5
2014-Nov-24 17:33N 50°47' W 001°06'2 2.0
2014-Nov-24 16:33N 50°49' W 001°06'0 0.0
2014-Nov-24 15:33N 50°49' W 001°06'6 6.2
2014-Nov-24 14:34N 50°43' W 001°03'1716.7
2014-Nov-24 13:33N 50°29' W 001°18'16921.2
2014-Nov-24 05:33N 48°42' W 004°40'1817.8
2014-Nov-24 04:33N 48°25' W 004°49'1616.3
2014-Nov-24 03:33N 48°09' W 004°46'1918.6
2014-Nov-24 02:32N 47°50' W 004°41'7 0.2
2014-Nov-22 20:33N 47°57' W 004°44'1918.6
2014-Nov-22 19:33N 48°15' W 004°46'1515.2
2014-Nov-22 18:33N 48°30' W 004°52'15321.4
2014-Nov-22 11:25N 50°14' W 002°00'2122.0
2014-Nov-22 10:27N 50°25' W 001°32'1820.4
2014-Nov-22 09:33N 50°35' W 001°08'1413.9
2014-Nov-22 08:33N 50°49' W 001°06'0 0.3
2014-Nov-22 07:33N 50°49' W 001°06'0 0.0
2014-Nov-22 06:33N 50°49' W 001°06'0 0.0
2014-Nov-22 05:33N 50°49' W 001°06'7 7.4
2014-Nov-22 04:33N 50°43' W 000°59'6911.5
2014-Nov-21 22:32N 49°42' W 000°08'1111.6
2014-Nov-21 21:34N 49°32' E 000°00'5 5.0
2014-Nov-21 20:33N 49°29' E 000°07'0 0.0
2014-Nov-21 19:34N 49°29' E 000°07'0 0.0
2014-Nov-21 18:34N 49°29' E 000°07'0 0.0
2014-Nov-21 17:34N 49°29' E 000°07'1010.2
2014-Nov-21 16:34N 49°36' W 000°05'6319.1
2014-Nov-21 13:17N 50°32' W 000°50'1419.0
2014-Nov-21 12:34N 50°43' W 001°02'6 6.0
2014-Nov-21 11:33N 50°49' W 001°06'0 0.0
2014-Nov-21 10:34N 50°49' W 001°06'0 0.0
2014-Nov-21 09:34N 50°49' W 001°06'0 0.0
2014-Nov-21 08:33N 50°49' W 001°06'1 1.3
2014-Nov-21 07:34N 50°47' W 001°07'1514.8
2014-Nov-21 06:33N 50°36' W 000°52'4811.9
2014-Nov-21 02:33N 49°53' W 000°20'1010.2
2014-Nov-21 01:33N 49°43' W 000°14'2 2.4
2014-Nov-21 00:34N 49°42' W 000°11'2 2.1
2014-Nov-20 23:33N 49°41' W 000°08'6 5.6
2014-Nov-20 22:33N 49°36' W 000°05'1010.0
2014-Nov-20 21:33N 49°29' E 000°07'0 0.0
2014-Nov-20 20:33N 49°29' E 000°07'0 0.0
2014-Nov-20 19:33N 49°29' E 000°07'0 0.0
2014-Nov-20 18:33N 49°29' E 000°07'0 0.0
2014-Nov-20 17:33N 49°29' E 000°07'9 8.9
2014-Nov-20 16:33N 49°34' W 000°04'6620.0
2014-Nov-20 13:17N 50°33' W 000°50'1418.9
2014-Nov-20 12:33N 50°44' W 001°03'5 5.2
2014-Nov-20 11:33N 50°49' W 001°06'0 0.0
2014-Nov-20 10:33N 50°49' W 001°06'0 0.0
2014-Nov-20 09:34N 50°49' W 001°06'0 0.0
2014-Nov-20 08:34N 50°49' W 001°06'1 1.4
2014-Nov-20 07:34N 50°47' W 001°07'1514.9
2014-Nov-20 06:33N 50°35' W 000°53'5311.9
2014-Nov-20 02:07N 49°48' W 000°15'611.4
2014-Nov-20 01:34N 49°42' W 000°12'2 1.6
2014-Nov-20 00:33N 49°41' W 000°10'2 1.8
2014-Nov-19 23:33N 49°40' W 000°08'2 1.8
2014-Nov-19 22:33N 49°38' W 000°07'1110.6
2014-Nov-19 21:34N 49°30' E 000°03'3 2.7
2014-Nov-19 20:33N 49°29' E 000°07'0 0.0
2014-Nov-19 19:33N 49°29' E 000°07'0 0.0
2014-Nov-19 18:33N 49°29' E 000°07'0 0.0
2014-Nov-19 17:33N 49°29' E 000°07'8 8.3
2014-Nov-19 16:33N 49°34' W 000°03'6320.1
2014-Nov-19 13:25N 50°30' W 000°49'1618.3
2014-Nov-19 12:33N 50°44' W 001°03'6 5.5
2014-Nov-19 11:33N 50°49' W 001°06'0 0.0
2014-Nov-19 10:33N 50°49' W 001°06'0 0.0
2014-Nov-19 09:33N 50°49' W 001°06'0 0.0
2014-Nov-19 08:33N 50°49' W 001°06'1 1.4
2014-Nov-19 07:33N 50°47' W 001°07'1514.8
2014-Nov-19 06:33N 50°34' W 000°56'49 9.8
2014-Nov-19 01:33N 49°51' W 000°20'2 1.9
2014-Nov-19 00:31N 49°50' W 000°18'3 2.7
2014-Nov-18 23:33N 49°48' W 000°16'1010.3
2014-Nov-18 22:33N 49°39' W 000°07'  
Track history (hours):
 
Tides and Currents Weather Stations Pressure Air Temp Water Temp Dewpoint Dewpoint Depression Visibility Wind Speed Wind Dir Waves Ship Positions

Etretat

Last reported at 2014-Nov-28 21:34 UTC. Time now 2014-Nov-28 21:45 UTC.
Position N 50°49' W 001°06'.

Length 187 m; draft 6 m.

Type: Ship. MMSI: 228022900.

Date/timePositionNaut miles runAvg speedWind from/ knotsBaromVisibWave heightAir tempDewpointWater temp
2014-Nov-28 21:34N 50°49' W 001°06'0 0.5
2014-Nov-28 20:33N 50°49' W 001°07'1211.7
2014-Nov-28 19:34N 50°39' W 000°55'2 1.8
2014-Nov-28 18:32N 50°40' W 000°53'1111.3
2014-Nov-28 17:33N 50°47' W 001°06'2 1.6
2014-Nov-28 16:33N 50°49' W 001°06'0 0.0
2014-Nov-28 15:33N 50°49' W 001°06'0 0.0
2014-Nov-28 14:33N 50°49' W 001°06'0 0.0
2014-Nov-28 13:33N 50°49' W 001°06'0 0.0
2014-Nov-28 12:33N 50°49' W 001°06'0 0.0
2014-Nov-28 11:33N 50°49' W 001°06'0 0.0
2014-Nov-28 10:33N 50°49' W 001°06'0 0.0
2014-Nov-28 09:33N 50°49' W 001°06'0 0.0
2014-Nov-28 08:33N 50°49' W 001°06'1 1.4
2014-Nov-28 07:33N 50°47' W 001°07'1414.0
2014-Nov-28 06:34N 50°36' W 000°53'49 9.5
2014-Nov-28 01:26N 49°53' W 000°18'2 1.7
2014-Nov-28 00:33N 49°52' W 000°18'9 8.8
2014-Nov-27 23:33N 49°43' W 000°14'1010.2
2014-Nov-27 22:34N 49°35' W 000°04'9 9.4
2014-Nov-27 21:33N 49°29' E 000°07'0 0.0
2014-Nov-27 20:33N 49°29' E 000°07'0 0.0
2014-Nov-27 19:33N 49°29' E 000°07'0 0.0
2014-Nov-27 18:33N 49°29' E 000°07'0 0.0
2014-Nov-27 17:33N 49°29' E 000°07'9 9.3
2014-Nov-27 16:33N 49°35' W 000°04'6119.8
2014-Nov-27 13:30N 50°29' W 000°49'1718.0
2014-Nov-27 12:34N 50°43' W 001°02'6 5.8
2014-Nov-27 11:33N 50°49' W 001°06'0 0.0
2014-Nov-27 10:33N 50°49' W 001°06'0 0.0
2014-Nov-27 09:33N 50°49' W 001°06'0 0.0
2014-Nov-27 08:33N 50°49' W 001°06'1 1.3
2014-Nov-27 07:33N 50°47' W 001°07'1413.8
2014-Nov-27 06:33N 50°36' W 000°54'6210.3
2014-Nov-27 00:30N 49°42' W 000°05'3 2.9
2014-Nov-26 23:33N 49°41' W 000°08'4 4.0
2014-Nov-26 22:33N 49°37' W 000°05'1010.1
2014-Nov-26 21:34N 49°29' E 000°04'2 1.8
2014-Nov-26 20:33N 49°29' E 000°07'0 0.0
2014-Nov-26 19:33N 49°29' E 000°07'0 0.0
2014-Nov-26 18:33N 49°29' E 000°07'0 0.0
2014-Nov-26 17:33N 49°29' E 000°07'1110.7
2014-Nov-26 16:33N 49°37' W 000°05'6119.0
2014-Nov-26 13:22N 50°29' W 000°52'1518.7
2014-Nov-26 12:33N 50°43' W 001°01'6 6.4
2014-Nov-26 11:34N 50°49' W 001°06'0 0.0
2014-Nov-26 10:33N 50°49' W 001°06'0 0.0
2014-Nov-26 09:34N 50°49' W 001°06'0 0.0
2014-Nov-26 08:33N 50°49' W 001°06'2 1.6
2014-Nov-26 07:34N 50°47' W 001°06'1414.2
2014-Nov-26 06:34N 50°36' W 000°52'6011.7
2014-Nov-26 01:23N 49°43' W 000°07'2 2.4
2014-Nov-26 00:33N 49°42' W 000°05'1 1.4
2014-Nov-25 23:33N 49°40' W 000°06'5 5.1
2014-Nov-25 22:33N 49°36' W 000°03'9 9.2
2014-Nov-25 21:34N 49°29' E 000°07'0 0.0
2014-Nov-25 20:34N 49°29' E 000°07'0 0.0
2014-Nov-25 19:34N 49°29' E 000°07'0 0.0
2014-Nov-25 18:34N 49°29' E 000°07'0 0.0
2014-Nov-25 17:34N 49°29' E 000°07'1212.1
2014-Nov-25 16:33N 49°37' W 000°08'5919.7
2014-Nov-25 13:33N 50°29' W 000°53'1918.9
2014-Nov-25 12:34N 50°45' W 001°05'3 3.3
2014-Nov-25 11:33N 50°49' W 001°06'0 0.0
2014-Nov-25 10:33N 50°49' W 001°06'0 0.0
2014-Nov-25 09:33N 50°49' W 001°06'1 1.0
2014-Nov-25 08:33N 50°48' W 001°07'1212.5
2014-Nov-25 07:34N 50°38' W 000°54'9 8.7
2014-Nov-25 06:33N 50°30' W 000°49'4610.6
2014-Nov-25 02:11N 49°49' W 000°16'6 9.9
2014-Nov-25 01:34N 49°44' W 000°11'1010.0
2014-Nov-25 00:34N 49°36' W 000°03'9 9.0
2014-Nov-24 23:34N 49°29' E 000°07'0 0.0
2014-Nov-24 22:33N 49°29' E 000°07'6 6.1
2014-Nov-24 21:34N 49°33' W 000°01'6722.1
2014-Nov-24 18:31N 50°32' W 000°51'1818.5
2014-Nov-24 17:33N 50°47' W 001°06'2 2.0
2014-Nov-24 16:33N 50°49' W 001°06'0 0.0
2014-Nov-24 15:33N 50°49' W 001°06'6 6.2
2014-Nov-24 14:34N 50°43' W 001°03'1716.7
2014-Nov-24 13:33N 50°29' W 001°18'16921.2
2014-Nov-24 05:33N 48°42' W 004°40'1817.8
2014-Nov-24 04:33N 48°25' W 004°49'1616.3
2014-Nov-24 03:33N 48°09' W 004°46'1918.6
2014-Nov-24 02:32N 47°50' W 004°41'7 0.2
2014-Nov-22 20:33N 47°57' W 004°44'1918.6
2014-Nov-22 19:33N 48°15' W 004°46'1515.2
2014-Nov-22 18:33N 48°30' W 004°52'15321.4
2014-Nov-22 11:25N 50°14' W 002°00'2122.0
2014-Nov-22 10:27N 50°25' W 001°32'1820.4
2014-Nov-22 09:33N 50°35' W 001°08'1413.9
2014-Nov-22 08:33N 50°49' W 001°06'0 0.3
2014-Nov-22 07:33N 50°49' W 001°06'0 0.0
2014-Nov-22 06:33N 50°49' W 001°06'0 0.0
2014-Nov-22 05:33N 50°49' W 001°06'7 7.4
2014-Nov-22 04:33N 50°43' W 000°59'6911.5
2014-Nov-21 22:32N 49°42' W 000°08'1111.6
2014-Nov-21 21:34N 49°32' E 000°00'5 5.0
2014-Nov-21 20:33N 49°29' E 000°07'0 0.0
2014-Nov-21 19:34N 49°29' E 000°07'0 0.0
2014-Nov-21 18:34N 49°29' E 000°07'0 0.0
2014-Nov-21 17:34N 49°29' E 000°07'1010.2
2014-Nov-21 16:34N 49°36' W 000°05'6319.1
2014-Nov-21 13:17N 50°32' W 000°50'1419.0
2014-Nov-21 12:34N 50°43' W 001°02'6 6.0
2014-Nov-21 11:33N 50°49' W 001°06'0 0.0
2014-Nov-21 10:34N 50°49' W 001°06'0 0.0
2014-Nov-21 09:34N 50°49' W 001°06'0 0.0
2014-Nov-21 08:33N 50°49' W 001°06'1 1.3
2014-Nov-21 07:34N 50°47' W 001°07'1514.8
2014-Nov-21 06:33N 50°36' W 000°52'4811.9
2014-Nov-21 02:33N 49°53' W 000°20'1010.2
2014-Nov-21 01:33N 49°43' W 000°14'2 2.4
2014-Nov-21 00:34N 49°42' W 000°11'2 2.1
2014-Nov-20 23:33N 49°41' W 000°08'6 5.6
2014-Nov-20 22:33N 49°36' W 000°05'1010.0
2014-Nov-20 21:33N 49°29' E 000°07'0 0.0
2014-Nov-20 20:33N 49°29' E 000°07'0 0.0
2014-Nov-20 19:33N 49°29' E 000°07'0 0.0
2014-Nov-20 18:33N 49°29' E 000°07'0 0.0
2014-Nov-20 17:33N 49°29' E 000°07'9 8.9
2014-Nov-20 16:33N 49°34' W 000°04'6620.0
2014-Nov-20 13:17N 50°33' W 000°50'1418.9
2014-Nov-20 12:33N 50°44' W 001°03'5 5.2
2014-Nov-20 11:33N 50°49' W 001°06'0 0.0
2014-Nov-20 10:33N 50°49' W 001°06'0 0.0
2014-Nov-20 09:34N 50°49' W 001°06'0 0.0
2014-Nov-20 08:34N 50°49' W 001°06'1 1.4
2014-Nov-20 07:34N 50°47' W 001°07'1514.9
2014-Nov-20 06:33N 50°35' W 000°53'5311.9
2014-Nov-20 02:07N 49°48' W 000°15'611.4
2014-Nov-20 01:34N 49°42' W 000°12'2 1.6
2014-Nov-20 00:33N 49°41' W 000°10'2 1.8
2014-Nov-19 23:33N 49°40' W 000°08'2 1.8
2014-Nov-19 22:33N 49°38' W 000°07'1110.6
2014-Nov-19 21:34N 49°30' E 000°03'3 2.7
2014-Nov-19 20:33N 49°29' E 000°07'0 0.0
2014-Nov-19 19:33N 49°29' E 000°07'0 0.0
2014-Nov-19 18:33N 49°29' E 000°07'0 0.0
2014-Nov-19 17:33N 49°29' E 000°07'8 8.3
2014-Nov-19 16:33N 49°34' W 000°03'6320.1
2014-Nov-19 13:25N 50°30' W 000°49'1618.3
2014-Nov-19 12:33N 50°44' W 001°03'6 5.5
2014-Nov-19 11:33N 50°49' W 001°06'0 0.0
2014-Nov-19 10:33N 50°49' W 001°06'0 0.0
2014-Nov-19 09:33N 50°49' W 001°06'0 0.0
2014-Nov-19 08:33N 50°49' W 001°06'1 1.4
2014-Nov-19 07:33N 50°47' W 001°07'1514.8
2014-Nov-19 06:33N 50°34' W 000°56'49 9.8
2014-Nov-19 01:33N 49°51' W 000°20'2 1.9
2014-Nov-19 00:31N 49°50' W 000°18'3 2.7
2014-Nov-18 23:33N 49°48' W 000°16'1010.3
2014-Nov-18 22:33N 49°39' W 000°07'  

Dump ship's entire track history